Time;durP1;ratioP1;P1;durP2;ratioP2;P2;SDS_P1;SDS_P2;PMS_P1;PMS_P2;Temp;Humidity;BMP_temperature;BMP_pressure;BME280_temperature;BME280_humidity;BME280_pressure;Samples;Min_cycle;Max_cycle;Signal;HPM_P1;HPM_P2
2021/09/13 00:02:28;;;;;;;12.02;7.50;;;;;;;;;;5052288;28;20045;-75
2021/09/13 00:04:53;;;;;;;13.65;7.75;;;;;;;;;;5052508;28;20350;-76
2021/09/13 00:07:19;;;;;;;12.95;8.48;;;;;;;;;;5052429;28;20059;-76
2021/09/13 00:09:44;;;;;;;16.83;8.70;;;;;;;;;;5052267;28;20033;-76
2021/09/13 00:12:09;;;;;;;15.05;8.60;;;;;;;;;;5052227;28;20532;-75
2021/09/13 00:14:35;;;;;;;15.75;8.13;;;;;;;;;;5052257;28;20021;-75
2021/09/13 00:17:00;;;;;;;12.20;8.05;;;;;;;;;;5052473;28;20492;-75
2021/09/13 00:19:25;;;;;;;11.30;7.72;;;;;;;;;;5051969;28;20021;-76
2021/09/13 00:21:51;;;;;;;17.10;8.48;;;;;;;;;;5052191;28;20041;-75
2021/09/13 00:24:16;;;;;;;12.05;7.97;;;;;;;;;;5052036;28;20036;-75
2021/09/13 00:26:41;;;;;;;17.40;8.68;;;;;;;;;;5051972;28;20021;-76
2021/09/13 00:29:06;;;;;;;12.10;8.13;;;;;;;;;;5052342;28;20064;-75
2021/09/13 00:31:32;;;;;;;12.10;8.20;;;;;;;;;;5055401;28;20029;-76
2021/09/13 00:33:57;;;;;;;17.48;8.25;;;;;;;;;;5052840;28;20098;-77
2021/09/13 00:36:22;;;;;;;15.25;8.57;;;;;;;;;;5053449;28;20134;-75
2021/09/13 00:38:48;;;;;;;12.55;7.90;;;;;;;;;;5055283;28;20063;-76
2021/09/13 00:41:13;;;;;;;10.25;7.63;;;;;;;;;;5054899;28;20017;-77
2021/09/13 00:43:38;;;;;;;11.55;7.82;;;;;;;;;;5055355;28;20064;-76
2021/09/13 00:46:04;;;;;;;10.95;7.88;;;;;;;;;;5054986;28;20432;-75
2021/09/13 00:48:30;;;;;;;12.32;8.30;;;;;;;;;;5055430;28;20013;-75
2021/09/13 00:50:55;;;;;;;14.57;8.18;;;;;;;;;;5055128;28;20032;-75
2021/09/13 00:53:20;;;;;;;13.70;8.38;;;;;;;;;;5054798;28;20041;-76
2021/09/13 00:55:45;;;;;;;12.88;8.23;;;;;;;;;;5055337;28;20021;-76
2021/09/13 00:58:11;;;;;;;12.68;8.25;;;;;;;;;;5055083;28;20036;-75
2021/09/13 01:00:37;;;;;;;16.45;8.38;;;;;;;;;;5054933;28;20036;-75
2021/09/13 01:03:02;;;;;;;12.75;8.10;;;;;;;;;;5055211;28;20033;-75
2021/09/13 01:05:27;;;;;;;13.65;8.68;;;;;;;;;;5053795;28;20036;-76
2021/09/13 01:07:53;;;;;;;14.57;8.68;;;;;;;;;;5054937;28;20029;-75
2021/09/13 01:10:19;;;;;;;16.42;8.95;;;;;;;;;;5055080;28;20025;-76
2021/09/13 01:12:44;;;;;;;15.75;9.32;;;;;;;;;;5054974;28;20061;-76
2021/09/13 01:15:10;;;;;;;12.85;8.50;;;;;;;;;;5054819;28;20052;-76
2021/09/13 01:17:35;;;;;;;16.92;8.20;;;;;;;;;;5054878;28;20094;-76
2021/09/13 01:20:00;;;;;;;13.43;8.50;;;;;;;;;;5054909;28;20059;-76
2021/09/13 01:22:27;;;;;;;13.13;8.63;;;;;;;;;;5054519;28;20080;-76
2021/09/13 01:24:52;;;;;;;16.83;8.27;;;;;;;;;;5054649;28;20025;-76
2021/09/13 01:27:18;;;;;;;15.00;9.77;;;;;;;;;;5054973;28;20033;-75
2021/09/13 01:29:43;;;;;;;14.65;8.73;;;;;;;;;;5054537;28;20029;-76
2021/09/13 01:32:09;;;;;;;13.77;9.27;;;;;;;;;;5054602;28;20520;-76
2021/09/13 01:34:34;;;;;;;16.38;9.48;;;;;;;;;;5054778;28;20056;-76
2021/09/13 01:36:59;;;;;;;16.55;9.48;;;;;;;;;;5054406;28;20025;-76
2021/09/13 01:39:25;;;;;;;15.10;9.40;;;;;;;;;;5053251;28;20509;-77
2021/09/13 01:41:51;;;;;;;14.48;9.40;;;;;;;;;;5053333;28;20048;-75
2021/09/13 01:44:16;;;;;;;15.70;9.57;;;;;;;;;;5054217;28;20052;-75
2021/09/13 01:46:42;;;;;;;16.00;9.02;;;;;;;;;;5054262;28;20052;-76
2021/09/13 01:49:08;;;;;;;15.30;9.35;;;;;;;;;;5054290;28;20033;-76
2021/09/13 01:51:34;;;;;;;17.92;9.40;;;;;;;;;;5054204;28;20040;-76
2021/09/13 01:53:59;;;;;;;15.80;10.15;;;;;;;;;;5054549;28;20020;-75
2021/09/13 01:56:25;;;;;;;15.80;10.05;;;;;;;;;;5054464;28;20396;-76
2021/09/13 01:58:50;;;;;;;15.60;9.38;;;;;;;;;;5054115;28;20033;-75
2021/09/13 02:01:17;;;;;;;14.02;9.02;;;;;;;;;;5053714;28;20027;-75
2021/09/13 02:03:43;;;;;;;16.00;9.75;;;;;;;;;;5054005;28;20039;-75
2021/09/13 02:06:08;;;;;;;20.05;9.45;;;;;;;;;;5053992;28;20033;-75
2021/09/13 02:08:33;;;;;;;21.92;10.70;;;;;;;;;;5054028;28;20112;-75
2021/09/13 02:10:59;;;;;;;16.48;9.20;;;;;;;;;;5053583;28;20025;-76
2021/09/13 02:13:24;;;;;;;16.70;10.18;;;;;;;;;;5053851;28;20032;-76
2021/09/13 02:15:49;;;;;;;12.90;8.93;;;;;;;;;;5053741;28;20029;-76
2021/09/13 02:18:15;;;;;;;17.00;8.80;;;;;;;;;;5053962;28;20033;-75
2021/09/13 02:20:40;;;;;;;16.77;9.40;;;;;;;;;;5053555;28;20111;-76
2021/09/13 02:23:05;;;;;;;16.38;9.98;;;;;;;;;;5053529;28;20044;-75
2021/09/13 02:25:30;;;;;;;17.35;9.85;;;;;;;;;;5053577;28;20029;-76
2021/09/13 02:27:56;;;;;;;15.07;9.50;;;;;;;;;;5053407;28;20397;-76
2021/09/13 02:30:21;;;;;;;12.95;9.05;;;;;;;;;;5053551;28;20092;-75
2021/09/13 02:32:46;;;;;;;14.82;9.40;;;;;;;;;;5053466;28;20053;-77
2021/09/13 02:35:11;;;;;;;19.55;10.38;;;;;;;;;;5053132;28;20534;-75
2021/09/13 02:37:37;;;;;;;20.98;10.20;;;;;;;;;;5052919;28;20104;-75
2021/09/13 02:40:03;;;;;;;16.92;9.57;;;;;;;;;;5053527;28;20028;-75
2021/09/13 02:42:29;;;;;;;17.60;9.40;;;;;;;;;;5051632;28;20090;-76
2021/09/13 02:44:54;;;;;;;15.07;9.80;;;;;;;;;;5053240;28;20017;-75
2021/09/13 02:47:19;;;;;;;15.85;8.85;;;;;;;;;;5053257;28;20385;-76
2021/09/13 02:49:45;;;;;;;16.90;9.50;;;;;;;;;;5053180;28;20115;-76
2021/09/13 02:52:10;;;;;;;16.92;10.25;;;;;;;;;;5052741;28;20087;-76
2021/09/13 02:54:35;;;;;;;14.48;9.00;;;;;;;;;;5052815;28;20033;-75
2021/09/13 02:57:01;;;;;;;17.08;9.95;;;;;;;;;;5053027;28;20033;-75
2021/09/13 02:59:26;;;;;;;15.20;10.05;;;;;;;;;;5053082;28;20025;-76
2021/09/13 03:01:51;;;;;;;15.27;10.48;;;;;;;;;;5052582;28;20056;-75
2021/09/13 03:04:16;;;;;;;24.77;10.73;;;;;;;;;;5053090;28;20572;-76
2021/09/13 03:06:42;;;;;;;19.80;11.13;;;;;;;;;;5052799;28;20025;-77
2021/09/13 03:09:07;;;;;;;19.15;10.88;;;;;;;;;;5052947;28;20025;-75
2021/09/13 03:11:32;;;;;;;24.02;10.02;;;;;;;;;;5052668;28;20029;-75
2021/09/13 03:13:58;;;;;;;18.20;10.52;;;;;;;;;;5052567;28;20036;-75
2021/09/13 03:16:23;;;;;;;13.45;9.73;;;;;;;;;;5051778;28;20079;-75
2021/09/13 03:18:48;;;;;;;22.10;10.07;;;;;;;;;;5052856;28;20048;-76
2021/09/13 03:21:15;;;;;;;18.73;10.65;;;;;;;;;;5052750;28;20104;-75
2021/09/13 03:23:40;;;;;;;18.33;9.80;;;;;;;;;;5052501;28;20036;-75
2021/09/13 03:26:05;;;;;;;16.15;10.18;;;;;;;;;;5052470;28;20116;-75
2021/09/13 03:28:31;;;;;;;15.20;10.13;;;;;;;;;;5053076;28;20017;-76
2021/09/13 03:30:56;;;;;;;14.50;9.93;;;;;;;;;;5052586;28;20063;-75
2021/09/13 03:33:21;;;;;;;18.63;10.15;;;;;;;;;;5052437;28;20133;-75
2021/09/13 03:35:47;;;;;;;19.85;9.10;;;;;;;;;;5052522;28;20049;-76
2021/09/13 03:38:12;;;;;;;12.73;9.02;;;;;;;;;;5052758;28;20036;-75
2021/09/13 03:40:37;;;;;;;12.48;8.43;;;;;;;;;;5052226;28;20171;-76
2021/09/13 03:43:02;;;;;;;13.00;7.82;;;;;;;;;;5052572;28;20033;-75
2021/09/13 03:45:28;;;;;;;17.42;8.20;;;;;;;;;;5052338;28;20029;-76
2021/09/13 03:47:53;;;;;;;14.35;7.72;;;;;;;;;;5052318;28;20472;-75
2021/09/13 03:50:18;;;;;;;12.35;7.70;;;;;;;;;;5052442;28;20048;-76
2021/09/13 03:52:43;;;;;;;14.75;8.15;;;;;;;;;;5052578;28;20388;-75
2021/09/13 03:55:09;;;;;;;15.05;7.55;;;;;;;;;;5052484;28;20056;-75
2021/09/13 03:57:34;;;;;;;16.65;8.93;;;;;;;;;;5051977;28;20136;-75
2021/09/13 03:59:59;;;;;;;13.80;8.52;;;;;;;;;;5052624;28;20033;-76
2021/09/13 04:02:25;;;;;;;15.07;8.15;;;;;;;;;;5052428;28;20424;-75
2021/09/13 04:04:51;;;;;;;15.98;8.05;;;;;;;;;;5052041;28;20031;-76
2021/09/13 04:07:26;;;;;;;13.32;8.55;;;;;;;;;;5056234;28;20029;-75
2021/09/13 04:12:25;;;;;;;13.05;7.97;;;;;;;;;;5056066;28;20250;-77
2021/09/13 04:14:51;;;;;;;13.15;7.85;;;;;;;;;;5055790;28;20370;-75
2021/09/13 04:17:16;;;;;;;13.25;7.43;;;;;;;;;;5056351;28;20159;-76
2021/09/13 04:19:42;;;;;;;13.32;8.00;;;;;;;;;;5055714;28;20013;-75
2021/09/13 04:22:08;;;;;;;13.93;7.28;;;;;;;;;;5055814;28;20049;-76
2021/09/13 04:24:33;;;;;;;12.65;7.45;;;;;;;;;;5055967;28;20033;-77
2021/09/13 04:26:58;;;;;;;17.92;9.25;;;;;;;;;;5055882;28;20028;-75
2021/09/13 04:29:23;;;;;;;13.82;7.70;;;;;;;;;;5055851;28;20052;-75
2021/09/13 04:31:49;;;;;;;15.95;7.30;;;;;;;;;;5055583;28;20518;-76
2021/09/13 04:34:14;;;;;;;15.68;7.05;;;;;;;;;;5055828;28;20032;-76
2021/09/13 04:36:39;;;;;;;12.57;7.15;;;;;;;;;;5055539;28;20025;-76
2021/09/13 04:39:05;;;;;;;13.18;7.13;;;;;;;;;;5055798;28;20036;-76
2021/09/13 04:41:30;;;;;;;16.20;7.75;;;;;;;;;;5055244;28;20021;-75
2021/09/13 04:43:55;;;;;;;12.68;7.57;;;;;;;;;;5055673;28;20067;-75
2021/09/13 04:46:21;;;;;;;19.02;7.70;;;;;;;;;;5055506;28;20029;-75
2021/09/13 04:48:46;;;;;;;15.27;7.90;;;;;;;;;;5055457;28;20053;-75
2021/09/13 04:51:11;;;;;;;14.57;8.07;;;;;;;;;;5055443;28;20052;-75
2021/09/13 04:53:36;;;;;;;16.92;8.00;;;;;;;;;;5055425;28;20052;-75
2021/09/13 04:56:02;;;;;;;14.95;7.63;;;;;;;;;;5055596;28;20104;-76
2021/09/13 04:58:27;;;;;;;11.75;7.40;;;;;;;;;;5055191;28;20469;-76
2021/09/13 05:00:53;;;;;;;14.15;7.85;;;;;;;;;;5055238;28;20029;-76
2021/09/13 05:03:18;;;;;;;14.63;7.68;;;;;;;;;;5055411;28;20083;-75
2021/09/13 05:05:43;;;;;;;12.98;7.63;;;;;;;;;;5055205;28;20063;-76
2021/09/13 05:08:08;;;;;;;15.68;8.70;;;;;;;;;;5054855;28;20037;-75
2021/09/13 05:10:34;;;;;;;16.90;8.63;;;;;;;;;;5054995;28;20024;-76
2021/09/13 05:13:00;;;;;;;15.60;7.65;;;;;;;;;;5055129;28;20033;-75
2021/09/13 05:15:25;;;;;;;12.23;8.20;;;;;;;;;;5055100;28;20067;-75
2021/09/13 05:17:50;;;;;;;16.17;9.00;;;;;;;;;;5054836;28;20501;-75
2021/09/13 05:20:16;;;;;;;16.02;7.82;;;;;;;;;;5055052;28;20029;-75
2021/09/13 05:22:41;;;;;;;19.08;8.82;;;;;;;;;;5054583;28;20072;-75
2021/09/13 05:25:06;;;;;;;14.95;7.68;;;;;;;;;;5055012;28;20108;-75
2021/09/13 05:27:32;;;;;;;13.30;7.35;;;;;;;;;;5054480;28;20031;-75
2021/09/13 05:29:57;;;;;;;11.05;7.25;;;;;;;;;;5054476;28;20037;-76
2021/09/13 05:32:22;;;;;;;15.30;8.27;;;;;;;;;;5054564;28;20044;-75
2021/09/13 05:34:48;;;;;;;13.77;9.05;;;;;;;;;;5054686;28;20073;-75
2021/09/13 05:37:13;;;;;;;13.55;8.15;;;;;;;;;;5054668;28;20033;-76
2021/09/13 05:39:38;;;;;;;14.77;8.68;;;;;;;;;;5054549;28;20421;-76
2021/09/13 05:42:03;;;;;;;13.48;9.15;;;;;;;;;;5054510;28;20035;-76
2021/09/13 05:44:29;;;;;;;13.55;8.73;;;;;;;;;;5053128;28;20047;-77
2021/09/13 05:46:54;;;;;;;20.10;10.50;;;;;;;;;;5054367;28;20437;-75
2021/09/13 05:49:19;;;;;;;25.73;11.80;;;;;;;;;;5054243;28;20462;-75
2021/09/13 05:51:45;;;;;;;21.60;10.25;;;;;;;;;;5053987;28;20039;-75
2021/09/13 05:54:11;;;;;;;57.42;23.17;;;;;;;;;;5053884;28;20024;-75
2021/09/13 05:56:37;;;;;;;38.33;17.20;;;;;;;;;;5054171;28;20079;-76
2021/09/13 05:59:02;;;;;;;33.92;15.77;;;;;;;;;;5054214;28;20440;-76
2021/09/13 06:01:27;;;;;;;17.00;10.27;;;;;;;;;;5053966;28;20096;-75
2021/09/13 06:03:53;;;;;;;21.77;9.90;;;;;;;;;;5054070;28;20047;-75
2021/09/13 06:06:18;;;;;;;16.02;9.60;;;;;;;;;;5053900;28;20025;-76
2021/09/13 06:08:43;;;;;;;17.05;8.73;;;;;;;;;;5053188;28;20021;-77
2021/09/13 06:11:09;;;;;;;25.85;11.88;;;;;;;;;;5045344;28;20025;-75
2021/09/13 06:13:34;;;;;;;17.42;8.27;;;;;;;;;;5034045;28;20371;-76
2021/09/13 06:15:59;;;;;;;25.92;10.00;;;;;;;;;;5032675;28;20025;-75
2021/09/13 06:18:24;;;;;;;16.88;9.80;;;;;;;;;;5033895;28;20136;-75
2021/09/13 06:20:50;;;;;;;18.75;8.23;;;;;;;;;;5033751;28;20029;-76
2021/09/13 06:23:15;;;;;;;15.73;9.07;;;;;;;;;;5033896;28;20393;-76
2021/09/13 06:25:41;;;;;;;16.38;9.35;;;;;;;;;;5033697;28;20051;-79
2021/09/13 06:28:06;;;;;;;13.18;7.85;;;;;;;;;;5033158;28;20060;-78
2021/09/13 06:30:31;;;;;;;15.95;8.70;;;;;;;;;;5033799;28;20022;-75
2021/09/13 06:32:56;;;;;;;16.10;8.98;;;;;;;;;;5033671;28;20136;-76
2021/09/13 06:35:22;;;;;;;19.55;9.00;;;;;;;;;;5033467;28;20117;-76
2021/09/13 06:37:48;;;;;;;18.63;8.10;;;;;;;;;;5050640;28;20029;-76
2021/09/13 06:40:13;;;;;;;15.90;7.65;;;;;;;;;;5053862;28;20082;-77
2021/09/13 06:42:38;;;;;;;13.38;7.68;;;;;;;;;;5053240;28;20033;-76
2021/09/13 06:45:17;;;;;;;11.52;7.75;;;;;;;;;;5053273;28;20021;-76
2021/09/13 06:47:45;;;;;;;14.07;7.78;;;;;;;;;;5044740;28;20033;-77
2021/09/13 06:50:18;;;;;;;13.57;7.85;;;;;;;;;;5044767;28;20043;-76
2021/09/13 06:52:45;;;;;;;11.70;7.38;;;;;;;;;;5053002;28;20037;-76
2021/09/13 06:55:10;;;;;;;12.00;6.95;;;;;;;;;;5052514;28;20536;-76
2021/09/13 06:57:36;;;;;;;10.65;6.88;;;;;;;;;;5051702;28;20017;-76
2021/09/13 07:00:05;;;;;;;9.82;6.55;;;;;;;;;;5052812;28;20464;-76
2021/09/13 07:02:30;;;;;;;9.80;6.05;;;;;;;;;;5051699;28;20132;-76
2021/09/13 07:04:56;;;;;;;15.68;6.55;;;;;;;;;;5053000;28;20448;-76
2021/09/13 07:07:21;;;;;;;8.98;5.32;;;;;;;;;;5052884;28;20040;-76
2021/09/13 07:09:46;;;;;;;13.13;5.88;;;;;;;;;;5051499;28;20474;-76
2021/09/13 07:12:12;;;;;;;8.88;5.50;;;;;;;;;;5052468;28;20025;-75
2021/09/13 07:14:37;;;;;;;12.73;5.82;;;;;;;;;;5052816;28;20067;-76
2021/09/13 07:17:03;;;;;;;7.60;5.32;;;;;;;;;;5052949;28;20036;-76
2021/09/13 07:19:29;;;;;;;7.78;5.25;;;;;;;;;;5052725;28;20067;-76
2021/09/13 07:21:54;;;;;;;10.52;5.47;;;;;;;;;;5052689;28;20025;-76
2021/09/13 07:24:21;;;;;;;20.67;13.55;;;;;;;;;;5052488;28;20474;-76
2021/09/13 07:26:47;;;;;;;11.38;7.40;;;;;;;;;;5049569;28;20049;-76
2021/09/13 07:29:12;;;;;;;10.35;7.10;;;;;;;;;;5038232;28;20040;-76
2021/09/13 07:31:37;;;;;;;14.88;8.73;;;;;;;;;;5052505;28;20029;-76
2021/09/13 07:34:04;;;;;;;20.55;12.88;;;;;;;;;;5052981;28;20469;-76
2021/09/13 07:36:30;;;;;;;17.42;12.23;;;;;;;;;;5049305;28;20371;-76
2021/09/13 07:38:56;;;;;;;23.77;14.32;;;;;;;;;;5052611;28;20025;-76
2021/09/13 07:41:22;;;;;;;20.38;12.93;;;;;;;;;;5055677;28;20023;-76
2021/09/13 07:43:48;;;;;;;22.42;14.02;;;;;;;;;;5056710;28;20040;-76
2021/09/13 07:46:13;;;;;;;20.10;13.85;;;;;;;;;;5056160;28;20033;-76
2021/09/13 07:48:38;;;;;;;27.20;14.23;;;;;;;;;;5056625;28;20020;-77
2021/09/13 07:51:04;;;;;;;18.42;11.25;;;;;;;;;;5056601;28;20553;-76
2021/09/13 07:53:29;;;;;;;23.73;14.00;;;;;;;;;;5056288;28;20029;-76
2021/09/13 07:55:54;;;;;;;20.02;12.60;;;;;;;;;;5056413;28;20484;-77
2021/09/13 07:58:19;;;;;;;23.15;14.85;;;;;;;;;;5055290;28;20056;-77
2021/09/13 08:00:45;;;;;;;24.25;14.25;;;;;;;;;;5056210;28;20064;-77
2021/09/13 08:03:10;;;;;;;20.20;11.07;;;;;;;;;;5056057;28;20056;-77
2021/09/13 08:05:35;;;;;;;21.13;12.90;;;;;;;;;;5056034;28;20040;-77
2021/09/13 08:08:00;;;;;;;18.48;13.07;;;;;;;;;;5056043;28;20029;-76
2021/09/13 08:10:26;;;;;;;17.27;11.25;;;;;;;;;;5056154;28;20097;-76
2021/09/13 08:12:51;;;;;;;22.65;12.82;;;;;;;;;;5055784;28;20061;-77
2021/09/13 08:15:16;;;;;;;17.45;12.27;;;;;;;;;;5055959;28;20075;-76
2021/09/13 08:17:42;;;;;;;21.55;11.80;;;;;;;;;;5052449;28;20028;-76
2021/09/13 08:20:07;;;;;;;14.73;11.18;;;;;;;;;;5044962;28;20044;-77
2021/09/13 08:22:32;;;;;;;18.95;11.40;;;;;;;;;;5042521;28;20069;-76
2021/09/13 08:24:58;;;;;;;17.77;10.85;;;;;;;;;;5053352;28;20021;-76
2021/09/13 08:27:23;;;;;;;16.02;10.55;;;;;;;;;;5051579;28;20058;-76
2021/09/13 08:29:48;;;;;;;18.42;10.43;;;;;;;;;;5044098;28;20025;-78
2021/09/13 08:32:14;;;;;;;16.23;10.63;;;;;;;;;;5053892;28;20076;-76
2021/09/13 08:34:39;;;;;;;14.43;9.30;;;;;;;;;;5034411;28;20037;-78
2021/09/13 08:37:04;;;;;;;13.45;9.95;;;;;;;;;;5045438;28;20112;-76
2021/09/13 08:39:30;;;;;;;13.88;9.63;;;;;;;;;;5038583;28;20446;-77
2021/09/13 08:41:56;;;;;;;13.95;9.80;;;;;;;;;;5032854;28;20029;-78
2021/09/13 08:44:21;;;;;;;15.70;9.15;;;;;;;;;;5032567;28;20041;-77
2021/09/13 08:49:25;;;;;;;16.83;8.38;;;;;;;;;;5034219;28;20041;-76
2021/09/13 08:51:50;;;;;;;12.77;9.20;;;;;;;;;;5033649;28;20069;-78
2021/09/13 08:54:16;;;;;;;13.45;8.77;;;;;;;;;;5034145;28;20061;-77
2021/09/13 08:56:42;;;;;;;16.73;8.75;;;;;;;;;;5034643;28;20048;-78
2021/09/13 08:59:15;;;;;;;14.02;8.27;;;;;;;;;;5053380;28;20025;-78
2021/09/13 09:01:40;;;;;;;13.55;9.48;;;;;;;;;;5053133;28;20780;-77
2021/09/13 09:04:06;;;;;;;16.60;8.48;;;;;;;;;;5053377;28;20033;-77
2021/09/13 09:06:32;;;;;;;15.05;9.48;;;;;;;;;;5053308;28;20021;-77
2021/09/13 09:08:59;;;;;;;15.73;10.27;;;;;;;;;;5052635;28;20082;-77
2021/09/13 09:11:24;;;;;;;13.85;8.27;;;;;;;;;;5052997;28;20056;-78
2021/09/13 09:13:49;;;;;;;13.07;8.80;;;;;;;;;;5053158;28;20056;-76
2021/09/13 09:16:15;;;;;;;13.32;8.32;;;;;;;;;;5052796;28;20032;-76
2021/09/13 09:18:40;;;;;;;14.23;7.80;;;;;;;;;;5052320;28;20406;-76
2021/09/13 09:21:06;;;;;;;14.50;8.23;;;;;;;;;;5053249;28;20021;-76
2021/09/13 09:23:33;;;;;;;12.02;8.60;;;;;;;;;;5052759;28;20052;-77
2021/09/13 09:26:12;;;;;;;12.57;8.68;;;;;;;;;;5051181;28;20382;-77
2021/09/13 09:28:37;;;;;;;20.23;7.88;;;;;;;;;;5052320;28;20025;-77
2021/09/13 09:31:02;;;;;;;13.70;8.43;;;;;;;;;;5050487;28;20036;-75
2021/09/13 09:33:28;;;;;;;10.93;7.90;;;;;;;;;;5011548;28;1187396;-76
2021/09/13 09:35:54;;;;;;;13.70;7.47;;;;;;;;;;5048304;28;20041;-77
2021/09/13 09:38:27;;;;;;;15.93;8.65;;;;;;;;;;5053215;28;20070;-77
2021/09/13 09:41:00;;;;;;;14.27;7.55;;;;;;;;;;5053485;28;20017;-76
2021/09/13 09:43:25;;;;;;;11.32;7.57;;;;;;;;;;5052796;28;20079;-77
2021/09/13 09:45:50;;;;;;;11.70;7.47;;;;;;;;;;5052792;28;20056;-77
2021/09/13 09:48:16;;;;;;;12.38;6.68;;;;;;;;;;5053211;28;20025;-76
2021/09/13 09:50:42;;;;;;;12.00;7.05;;;;;;;;;;5053767;28;20041;-77
2021/09/13 09:53:20;;;;;;;13.55;6.97;;;;;;;;;;5053208;28;20221;-77
2021/09/13 09:56:03;;;;;;;13.07;7.32;;;;;;;;;;5053510;28;20036;-78
2021/09/13 09:58:29;;;;;;;14.90;7.60;;;;;;;;;;5053198;28;20039;-77
2021/09/13 10:00:54;;;;;;;13.45;6.90;;;;;;;;;;5053684;28;20024;-77
2021/09/13 10:03:29;;;;;;;11.20;7.10;;;;;;;;;;5051942;28;20109;-76
2021/09/13 10:05:55;;;;;;;10.73;6.75;;;;;;;;;;5053270;28;20469;-77
2021/09/13 10:08:21;;;;;;;11.23;6.75;;;;;;;;;;5053212;28;20033;-76
2021/09/13 10:10:47;;;;;;;10.88;6.43;;;;;;;;;;5053285;28;20016;-76
2021/09/13 10:13:12;;;;;;;14.05;6.60;;;;;;;;;;5044836;28;20358;-77
2021/09/13 10:15:37;;;;;;;11.55;7.07;;;;;;;;;;5051978;28;20060;-77
2021/09/13 10:18:03;;;;;;;14.45;6.55;;;;;;;;;;5051967;28;20397;-77
2021/09/13 10:20:28;;;;;;;14.52;7.40;;;;;;;;;;5051632;28;20117;-77
2021/09/13 10:22:54;;;;;;;14.07;6.68;;;;;;;;;;5051798;28;20059;-77
2021/09/13 10:25:20;;;;;;;17.95;7.45;;;;;;;;;;5052383;28;20013;-77
2021/09/13 10:27:47;;;;;;;13.25;7.47;;;;;;;;;;5051835;28;20033;-76
2021/09/13 10:30:25;;;;;;;17.02;7.38;;;;;;;;;;5050892;28;20043;-76
2021/09/13 10:32:51;;;;;;;16.35;7.80;;;;;;;;;;5050538;28;20053;-76
2021/09/13 10:35:18;;;;;;;12.70;7.35;;;;;;;;;;5051014;28;20044;-77
2021/09/13 10:37:50;;;;;;;11.25;7.40;;;;;;;;;;5052160;28;20088;-76
2021/09/13 10:40:15;;;;;;;11.25;7.35;;;;;;;;;;5051579;28;20032;-77
2021/09/13 10:42:41;;;;;;;14.95;7.22;;;;;;;;;;5050693;28;20044;-77
2021/09/13 10:45:11;;;;;;;14.25;7.25;;;;;;;;;;5051017;28;20024;-77
2021/09/13 10:47:38;;;;;;;13.07;7.40;;;;;;;;;;5051395;28;20043;-76
2021/09/13 10:50:12;;;;;;;13.30;7.40;;;;;;;;;;5050173;28;20044;-77
2021/09/13 10:52:37;;;;;;;10.55;7.43;;;;;;;;;;5050744;28;20025;-76
2021/09/13 10:55:09;;;;;;;14.27;7.10;;;;;;;;;;5051250;28;20039;-76
2021/09/13 10:57:52;;;;;;;11.25;7.82;;;;;;;;;;5051619;28;20420;-76
2021/09/13 11:00:36;;;;;;;12.88;7.63;;;;;;;;;;5051364;28;20037;-76
2021/09/13 11:03:20;;;;;;;21.17;8.07;;;;;;;;;;5047007;28;20040;-79
2021/09/13 11:05:45;;;;;;;13.57;7.10;;;;;;;;;;5046652;28;20029;-78
2021/09/13 11:08:23;;;;;;;11.38;5.85;;;;;;;;;;5050627;28;20037;-76
2021/09/13 11:10:49;;;;;;;10.82;5.65;;;;;;;;;;5052171;28;20033;-76
2021/09/13 11:13:16;;;;;;;12.95;6.82;;;;;;;;;;5051276;28;20032;-75
2021/09/13 11:15:46;;;;;;;13.55;6.32;;;;;;;;;;5051694;28;20017;-77
2021/09/13 11:18:11;;;;;;;10.88;6.28;;;;;;;;;;5050830;28;20172;-77
2021/09/13 11:20:36;;;;;;;11.75;6.90;;;;;;;;;;5051143;28;20547;-76
2021/09/13 11:23:02;;;;;;;12.55;7.15;;;;;;;;;;5051042;28;20075;-76
2021/09/13 11:25:27;;;;;;;12.70;7.40;;;;;;;;;;5051693;28;20033;-78
2021/09/13 11:27:59;;;;;;;13.32;7.68;;;;;;;;;;5050966;28;20389;-76
2021/09/13 11:30:41;;;;;;;15.85;8.05;;;;;;;;;;5051479;28;20017;-75
2021/09/13 11:33:07;;;;;;;13.57;8.82;;;;;;;;;;5051173;28;20103;-77
2021/09/13 11:35:32;;;;;;;11.02;8.07;;;;;;;;;;5051506;28;20162;-76
2021/09/13 11:37:59;;;;;;;16.42;9.50;;;;;;;;;;5050819;28;20109;-78
2021/09/13 11:40:25;;;;;;;20.02;8.30;;;;;;;;;;5051266;28;20529;-76
2021/09/13 11:42:50;;;;;;;14.02;8.32;;;;;;;;;;5050807;28;20071;-76
2021/09/13 11:45:16;;;;;;;21.42;9.75;;;;;;;;;;5051357;28;20021;-75
2021/09/13 11:47:41;;;;;;;21.25;9.75;;;;;;;;;;5050434;28;20025;-76
2021/09/13 11:50:07;;;;;;;19.05;8.80;;;;;;;;;;5051022;28;20063;-76
2021/09/13 11:52:37;;;;;;;20.13;10.02;;;;;;;;;;5050745;28;20021;-77
2021/09/13 11:55:10;;;;;;;20.60;10.65;;;;;;;;;;5050990;28;20032;-76
2021/09/13 11:57:44;;;;;;;18.90;9.70;;;;;;;;;;5050808;28;20112;-75
2021/09/13 12:00:13;;;;;;;14.65;9.60;;;;;;;;;;5051527;28;20029;-76
2021/09/13 12:02:48;;;;;;;15.55;9.13;;;;;;;;;;5051224;28;20053;-76
2021/09/13 12:05:21;;;;;;;12.02;8.27;;;;;;;;;;5051887;28;20158;-75
2021/09/13 12:07:48;;;;;;;17.83;9.00;;;;;;;;;;5051274;28;20124;-76
2021/09/13 12:10:20;;;;;;;10.63;6.85;;;;;;;;;;5051526;28;20025;-76
2021/09/13 12:12:47;;;;;;;12.73;7.57;;;;;;;;;;5051252;28;20029;-76
2021/09/13 12:15:13;;;;;;;10.73;6.63;;;;;;;;;;5051785;28;20032;-76
2021/09/13 12:17:39;;;;;;;13.20;6.90;;;;;;;;;;5051193;28;20025;-76
2021/09/13 12:20:11;;;;;;;13.27;7.30;;;;;;;;;;5050700;28;20029;-76
2021/09/13 12:22:37;;;;;;;14.38;8.50;;;;;;;;;;5049069;28;20049;-76
2021/09/13 12:25:11;;;;;;;16.38;9.05;;;;;;;;;;5050702;28;20504;-77
2021/09/13 12:27:41;;;;;;;16.05;8.45;;;;;;;;;;5052083;28;20039;-76
2021/09/13 12:30:07;;;;;;;16.80;8.10;;;;;;;;;;5053905;28;20083;-77
2021/09/13 12:32:33;;;;;;;11.07;8.02;;;;;;;;;;5053906;28;20139;-76
2021/09/13 12:34:59;;;;;;;12.68;8.65;;;;;;;;;;5048871;28;20036;-76
2021/09/13 12:37:37;;;;;;;12.20;8.43;;;;;;;;;;5053521;28;20037;-77
2021/09/13 12:40:05;;;;;;;15.27;7.97;;;;;;;;;;5054519;28;20108;-77
2021/09/13 12:42:30;;;;;;;12.65;7.95;;;;;;;;;;5052761;28;20041;-78
2021/09/13 12:44:59;;;;;;;14.07;8.23;;;;;;;;;;5053766;28;20032;-77
2021/09/13 12:47:24;;;;;;;12.88;6.40;;;;;;;;;;5054203;28;20065;-77
2021/09/13 12:49:51;;;;;;;10.57;6.78;;;;;;;;;;5053892;28;20433;-77
2021/09/13 12:52:16;;;;;;;13.85;6.30;;;;;;;;;;5052202;28;20473;-76
2021/09/13 12:54:42;;;;;;;9.05;5.68;;;;;;;;;;5053762;28;20060;-76
2021/09/13 12:57:07;;;;;;;11.82;6.25;;;;;;;;;;5053747;28;20028;-76
2021/09/13 12:59:33;;;;;;;12.32;7.13;;;;;;;;;;5050518;28;20017;-76
2021/09/13 13:01:58;;;;;;;11.68;6.80;;;;;;;;;;5053035;28;20064;-78
2021/09/13 13:04:34;;;;;;;10.43;7.72;;;;;;;;;;5044389;28;20399;-77
2021/09/13 13:07:03;;;;;;;11.63;7.20;;;;;;;;;;5051497;28;20017;-75
2021/09/13 13:09:28;;;;;;;12.52;7.40;;;;;;;;;;5054310;28;20039;-78
2021/09/13 13:11:54;;;;;;;10.70;7.47;;;;;;;;;;5054093;28;20095;-77
2021/09/13 13:14:19;;;;;;;14.52;7.65;;;;;;;;;;5049082;28;20033;-76
2021/09/13 13:16:45;;;;;;;11.38;7.90;;;;;;;;;;5053016;28;20056;-77
2021/09/13 13:19:12;;;;;;;14.57;6.80;;;;;;;;;;5053115;28;20028;-75
2021/09/13 13:21:38;;;;;;;11.52;7.20;;;;;;;;;;5053603;28;20033;-78
2021/09/13 13:24:04;;;;;;;12.43;7.28;;;;;;;;;;5053755;28;20571;-76
2021/09/13 13:26:29;;;;;;;11.52;6.43;;;;;;;;;;5054247;28;20052;-76
2021/09/13 13:28:54;;;;;;;10.40;6.68;;;;;;;;;;5053922;28;20083;-76
2021/09/13 13:31:20;;;;;;;12.20;7.93;;;;;;;;;;5054166;28;20454;-76
2021/09/13 13:33:45;;;;;;;9.02;6.95;;;;;;;;;;5053593;28;20103;-77
2021/09/13 13:36:12;;;;;;;14.95;8.05;;;;;;;;;;5053700;28;20375;-75
2021/09/13 13:38:37;;;;;;;12.60;6.63;;;;;;;;;;5052403;28;20040;-76
2021/09/13 13:41:03;;;;;;;12.88;7.18;;;;;;;;;;5053718;28;20021;-76
2021/09/13 13:43:28;;;;;;;10.13;7.50;;;;;;;;;;5053182;28;20143;-76
2021/09/13 13:45:53;;;;;;;10.35;7.43;;;;;;;;;;5053542;28;20539;-76
2021/09/13 13:48:19;;;;;;;14.90;6.85;;;;;;;;;;5052884;28;20025;-76
2021/09/13 13:50:44;;;;;;;11.75;7.25;;;;;;;;;;5053311;28;20025;-76
2021/09/13 13:53:10;;;;;;;12.48;6.45;;;;;;;;;;5051191;28;20044;-77
2021/09/13 13:55:35;;;;;;;13.40;7.22;;;;;;;;;;5052951;28;20462;-76
2021/09/13 13:58:00;;;;;;;8.60;6.15;;;;;;;;;;5053438;28;20466;-76
2021/09/13 14:00:26;;;;;;;12.23;6.55;;;;;;;;;;5053657;28;20040;-76
2021/09/13 14:02:51;;;;;;;9.77;6.25;;;;;;;;;;5052565;28;20086;-76
2021/09/13 14:05:16;;;;;;;9.93;6.90;;;;;;;;;;5053212;28;20486;-76
2021/09/13 14:07:42;;;;;;;10.43;6.38;;;;;;;;;;5052559;28;20087;-76
2021/09/13 14:10:08;;;;;;;10.63;6.93;;;;;;;;;;5049926;28;20079;-76
2021/09/13 14:12:33;;;;;;;11.27;6.68;;;;;;;;;;5052106;28;20499;-75
2021/09/13 14:14:58;;;;;;;12.27;6.65;;;;;;;;;;5053177;28;20029;-76
2021/09/13 14:17:24;;;;;;;17.17;6.47;;;;;;;;;;5051966;28;20057;-76
2021/09/13 14:19:50;;;;;;;10.13;5.50;;;;;;;;;;5052666;28;20033;-76
2021/09/13 14:22:16;;;;;;;13.85;6.60;;;;;;;;;;5051429;28;20534;-75
2021/09/13 14:24:41;;;;;;;11.93;5.60;;;;;;;;;;5052452;28;20033;-76
2021/09/13 14:27:09;;;;;;;14.35;6.40;;;;;;;;;;5051940;28;20032;-76
2021/09/13 14:29:34;;;;;;;11.15;5.47;;;;;;;;;;5052932;28;20508;-76